Middletown, Vermont
Current Conditions -  °F | °C
As of 5:18 AM on Thursday 18 Dec 2014 (Local Time) from KVSF Reporting Station
Overcast Overcast  
Wind Chill: -1°   Ceiling: 6500
Heat Index:   Visibility: 10mi
Dew Point: -2°   Wind: 8mph
Humidity: 73%   Direction: 290°WNW
Pressure: 29.73"   Gusts: 21mph
Location:  43.2811°N, 72.6352°W
Report Text: KVSF 181018Z AUTO 29007G18KT 270V010 10SM SCT029 OVC065 02/M02 A2973 RMK AO2 T00221022 TSNO
Loading
Personal Weather Stations






























Interactive Weather Map New forecast layout! Learn more

10-Day Weather Forecast

Advertisements
Track Severe Weather on mobile